Time;durP1;ratioP1;P1;durP2;ratioP2;P2;SDS_P1;SDS_P2;PMS_P1;PMS_P2;Temp;Humidity;BMP_temperature;BMP_pressure;BME280_temperature;BME280_humidity;BME280_pressure;Samples;Min_cycle;Max_cycle;Signal;HPM_P1;HPM_P2
2021/07/10 00:00:30;;;;;;;3.10;2.80;;;15.30;99.90;;;15.37;100.00;100749.34;3513355;40;100889;-86
2021/07/10 00:05:24;;;;;;;6.17;2.70;;;14.90;99.90;;;15.36;100.00;100741.44;3566675;22;105719;-87
2021/07/10 00:07:51;;;;;;;4.07;2.57;;;14.90;99.90;;;15.36;100.00;100736.88;3549405;23;103930;-83
2021/07/10 00:10:54;;;;;;;3.70;3.03;;;14.80;99.90;;;15.35;100.00;100739.75;2999221;22;107448;-86
2021/07/10 00:13:30;;;;;;;5.60;3.30;;;15.40;99.90;;;15.38;100.00;100731.31;3077832;23;107639;-85
2021/07/10 00:15:58;;;;;;;3.80;2.83;;;14.90;99.90;;;15.38;100.00;100729.47;3632716;22;105691;-85
2021/07/10 00:18:25;;;;;;;3.03;2.50;;;15.30;99.90;;;15.39;100.00;100743.78;3482488;22;109178;-84
2021/07/10 00:20:53;;;;;;;2.90;2.60;;;14.90;99.90;;;15.40;100.00;100745.47;3596098;22;107681;-86
2021/07/10 00:23:20;;;;;;;4.63;3.13;;;14.80;99.90;;;15.35;100.00;100747.84;3591839;22;104701;-87
2021/07/10 00:25:48;;;;;;;2.93;2.67;;;15.20;99.90;;;15.43;100.00;100743.25;3568076;22;104777;31
2021/07/10 00:28:15;;;;;;;4.57;2.43;;;14.30;99.90;;;15.45;100.00;100746.59;3490512;22;105595;-86
2021/07/10 00:30:43;;;;;;;2.80;2.50;;;16.10;99.90;;;15.44;100.00;100750.34;3297821;22;107301;-90
2021/07/10 00:33:13;;;;;;;2.90;2.37;;;14.90;99.90;;;15.45;100.00;100735.81;3651846;22;109882;31
2021/07/10 00:36:16;;;;;;;2.40;2.20;;;15.90;99.90;;;15.49;100.00;100746.25;2800608;22;107642;-85
2021/07/10 00:39:27;;;;;;;2.37;2.17;;;15.00;99.90;;;15.50;100.00;100732.56;3523998;40;100576;-86
2021/07/10 00:42:04;;;;;;;2.63;2.43;;;15.70;99.90;;;15.48;100.00;100729.22;3533540;22;106951;-86
2021/07/10 00:44:35;;;;;;;6.83;2.57;;;14.90;99.90;;;15.53;100.00;100731.38;3306553;22;108253;-84
2021/07/10 00:47:02;;;;;;;2.30;1.97;;;15.00;99.90;;;15.49;100.00;100739.00;2859301;22;107445;-87
2021/07/10 00:49:31;;;;;;;4.93;2.20;;;14.90;99.90;;;15.49;100.00;100735.44;3359401;22;106399;-89
2021/07/10 00:52:34;;;;;;;3.77;2.90;;;14.90;99.90;;;15.47;100.00;100738.31;3455009;22;106771;-87
2021/07/10 00:55:46;;;;;;;5.13;2.73;;;14.90;99.90;;;15.55;100.00;100745.56;3506479;40;102394;-88
2021/07/10 00:58:23;;;;;;;2.70;2.10;;;15.00;99.90;;;15.53;100.00;100736.78;3364636;22;106933;-85
2021/07/10 01:00:51;;;;;;;6.07;3.07;;;16.00;99.90;;;15.57;100.00;100741.69;3253085;22;107369;-85
2021/07/10 01:03:18;;;;;;;2.83;2.13;;;15.00;99.90;;;15.55;100.00;100735.63;3657915;22;105838;-85
2021/07/10 01:08:54;;;;;;;2.93;1.97;;;15.30;99.90;;;15.60;100.00;100735.06;3640992;22;100909;31
2021/07/10 01:11:30;;;;;;;3.93;2.80;;;16.30;99.90;;;15.57;100.00;100738.97;3622750;22;108004;-86
2021/07/10 01:13:57;;;;;;;2.00;1.80;;;15.00;99.90;;;15.62;100.00;100739.25;3649334;22;105448;-87
2021/07/10 01:16:24;;;;;;;3.17;2.73;;;16.30;99.90;;;15.59;100.00;100731.53;3504093;22;108712;-88
2021/07/10 01:18:52;;;;;;;4.57;3.10;;;14.80;99.90;;;15.58;100.00;100734.44;3640835;22;104622;-86
2021/07/10 01:21:21;;;;;;;5.57;3.00;;;15.10;99.90;;;15.64;100.00;100729.16;3157975;22;106948;-85
2021/07/10 01:23:48;;;;;;;3.83;2.83;;;15.10;99.90;;;15.58;100.00;100727.16;3704286;22;104601;-88
2021/07/10 01:26:15;;;;;;;2.97;2.67;;;15.00;99.90;;;15.64;100.00;100733.69;3506893;22;106206;-86
2021/07/10 01:29:18;;;;;;;4.13;3.10;;;14.60;99.90;;;15.69;100.00;100734.00;3686276;22;105327;-87
2021/07/10 01:32:00;;;;;;;2.70;2.50;;;15.20;99.90;;;15.67;100.00;100730.66;3582343;22;105595;-88
2021/07/10 01:35:03;;;;;;;4.32;3.03;;;15.20;99.90;;;15.69;100.00;100734.84;3489977;22;107199;-84
2021/07/10 01:37:43;;;;;;;4.40;2.90;;;15.20;99.90;;;15.71;100.00;100737.34;3710438;22;105173;-86
2021/07/10 01:40:13;;;;;;;4.13;3.28;;;15.20;99.90;;;15.71;100.00;100732.78;3603361;39;100818;-88
2021/07/10 01:45:12;;;;;;;3.23;2.90;;;15.30;99.90;;;15.75;100.00;100735.97;3262982;22;106998;-87
2021/07/10 01:47:41;;;;;;;3.10;2.47;;;15.30;99.90;;;15.74;100.00;100732.44;2607075;22;108219;31
2021/07/10 01:50:11;;;;;;;3.83;3.23;;;15.30;99.90;;;15.77;100.00;100731.25;3574567;22;107724;-84
2021/07/10 01:52:41;;;;;;;3.73;3.33;;;15.30;99.90;;;15.77;100.00;100734.78;3561348;22;106455;-87
2021/07/10 01:55:12;;;;;;;3.40;2.93;;;15.30;99.90;;;15.78;100.00;100727.53;3067879;22;103833;-84
2021/07/10 01:57:40;;;;;;;3.60;3.07;;;15.40;99.90;;;15.76;100.00;100727.69;3610260;22;106212;31
2021/07/10 02:00:10;;;;;;;5.15;3.28;;;16.60;99.90;;;15.76;100.00;100729.56;2916538;22;105964;-85
2021/07/10 02:02:37;;;;;;;3.50;3.20;;;15.40;99.90;;;15.71;100.00;100729.25;3638479;22;106113;-85
2021/07/10 02:05:41;;;;;;;3.60;3.05;;;16.20;99.90;;;15.75;100.00;100733.28;3649304;22;109577;-87
2021/07/10 02:08:18;;;;;;;3.88;3.00;;;15.40;99.90;;;15.70;100.00;100736.50;3492857;22;106778;-87
2021/07/10 02:10:46;;;;;;;4.57;3.80;;;15.20;99.90;;;15.69;100.00;100731.31;3507759;22;106599;-85
2021/07/10 02:13:14;;;;;;;5.32;3.63;;;15.30;99.90;;;15.69;100.00;100737.53;3549482;22;105457;-88
2021/07/10 02:15:42;;;;;;;4.78;3.38;;;15.30;99.90;;;15.74;100.00;100747.78;3592601;39;101275;-87
2021/07/10 02:18:09;;;;;;;4.40;3.37;;;14.60;99.90;;;15.73;100.00;100744.25;3578534;39;103053;-84
2021/07/10 02:20:37;;;;;;;4.15;3.75;;;15.30;99.90;;;15.75;100.00;100744.06;3582932;39;100794;-85
2021/07/10 02:23:06;;;;;;;4.80;3.58;;;15.30;99.90;;;15.77;100.00;100747.41;3675126;22;102181;-86
2021/07/10 02:25:35;;;;;;;3.20;2.92;;;15.50;99.90;;;15.73;100.00;100743.41;3577131;39;102911;-85
2021/07/10 02:31:05;;;;;;;5.53;3.50;;;15.40;99.90;;;15.77;100.00;100745.56;3714444;22;105281;-84
2021/07/10 02:34:16;;;;;;;5.43;3.63;;;15.30;99.90;;;15.76;100.00;100751.97;3627568;22;100787;-85
2021/07/10 02:36:52;;;;;;;4.88;3.92;;;15.80;99.90;;;15.74;100.00;100745.91;3679871;22;105634;-90
2021/07/10 02:39:57;;;;;;;6.57;3.93;;;15.30;99.90;;;15.81;100.00;100754.16;3439809;22;107490;31
2021/07/10 02:42:40;;;;;;;6.17;4.40;;;15.40;99.90;;;15.84;100.00;100753.75;3344490;22;107762;-89
2021/07/10 02:45:10;;;;;;;7.30;4.50;;;16.00;99.90;;;15.85;100.00;100751.91;3001529;22;105333;-86
2021/07/10 02:47:41;;;;;;;4.15;3.55;;;15.40;99.90;;;15.86;100.00;100748.19;2910721;22;106696;-85
2021/07/10 02:50:13;;;;;;;5.70;3.90;;;16.50;99.90;;;15.86;100.00;100750.88;3529436;39;100522;-85
2021/07/10 02:55:53;;;;;;;7.07;4.38;;;15.40;99.90;;;15.87;100.00;100748.00;3509536;22;106911;-91
2021/07/10 02:59:07;;;;;;;5.32;4.50;;;16.50;99.90;;;15.85;100.00;100738.41;2903964;22;107265;-84
2021/07/10 03:02:19;;;;;;;8.27;4.53;;;15.40;99.90;;;15.86;100.00;100732.84;3399645;22;106382;-89
2021/07/10 03:04:55;;;;;;;7.10;3.53;;;15.40;99.90;;;15.87;100.00;100744.47;3695682;22;105837;-86
2021/07/10 03:07:22;;;;;;;4.57;3.83;;;15.70;99.90;;;15.83;100.00;100733.19;3123311;22;107208;-85
2021/07/10 03:09:49;;;;;;;5.63;4.25;;;15.40;99.90;;;15.79;100.00;100735.44;3607313;22;101724;-86
2021/07/10 03:14:48;;;;;;;9.98;3.40;;;15.40;99.90;;;15.78;100.00;100727.53;3554787;22;106778;-92
2021/07/10 03:17:51;;;;;;;6.22;3.92;;;15.30;99.90;;;15.76;100.00;100718.75;3782006;22;104802;-87
2021/07/10 03:20:30;;;;;;;7.28;3.47;;;15.30;99.90;;;15.76;100.00;100725.00;3577213;22;105763;-86
2021/07/10 03:22:59;;;;;;;5.40;4.13;;;16.50;99.90;;;15.76;100.00;100724.16;3610190;22;104437;-90
2021/07/10 03:26:02;;;;;;;4.43;3.75;;;15.30;99.90;;;15.79;100.00;100729.19;3336975;22;107448;-88
2021/07/10 03:29:14;;;;;;;5.40;4.03;;;15.70;99.90;;;15.82;100.00;100730.69;3654480;22;108045;-86
2021/07/10 03:31:50;;;;;;;6.37;3.60;;;15.30;99.90;;;15.73;100.00;100725.34;2565158;22;107470;31
2021/07/10 03:34:55;;;;;;;5.00;4.07;;;15.30;99.90;;;15.84;100.00;100728.63;3445660;22;107505;-89
2021/07/10 03:38:08;;;;;;;5.35;3.97;;;15.10;99.90;;;15.79;100.00;100730.03;3002164;22;107202;-87
2021/07/10 03:41:20;;;;;;;7.10;4.90;;;16.20;99.90;;;15.83;100.00;100725.09;3064021;22;105957;-86
2021/07/10 03:44:33;;;;;;;5.10;4.37;;;15.30;99.90;;;15.82;100.00;100728.84;3665710;22;105733;-87
2021/07/10 03:47:48;;;;;;;6.23;4.60;;;15.30;99.90;;;15.82;100.00;100735.06;3761279;22;111515;-92
2021/07/10 03:50:26;;;;;;;7.22;4.90;;;15.30;99.90;;;15.76;100.00;100719.59;2651034;22;104569;-87
2021/07/10 03:52:55;;;;;;;8.70;5.33;;;15.30;99.90;;;15.77;100.00;100731.25;3093917;22;107679;31
2021/07/10 03:55:23;;;;;;;6.53;4.88;;;15.10;99.90;;;15.79;100.00;100721.94;2958045;22;107314;-87
2021/07/10 03:57:50;;;;;;;8.38;5.32;;;14.10;99.90;;;15.86;100.00;100732.00;2877242;22;105801;-90
2021/07/10 04:00:21;;;;;;;6.53;4.72;;;14.90;99.90;;;15.98;100.00;100727.84;3553148;22;106437;31
2021/07/10 04:02:56;;;;;;;6.32;4.72;;;15.20;99.90;;;15.98;100.00;100733.25;3589412;22;106373;-90
2021/07/10 04:05:25;;;;;;;7.32;4.97;;;14.90;99.90;;;16.02;100.00;100727.31;3010562;22;106016;-89
2021/07/10 04:07:53;;;;;;;7.60;5.90;;;15.20;99.90;;;15.93;100.00;100739.22;2792642;22;107108;-86
2021/07/10 04:10:20;;;;;;;11.57;6.03;;;15.20;99.90;;;15.91;100.00;100737.69;3665051;22;107072;-86
2021/07/10 04:12:48;;;;;;;8.43;5.13;;;15.20;99.90;;;15.95;100.00;100741.72;3678236;22;107044;-88
2021/07/10 04:15:52;;;;;;;7.67;6.03;;;15.20;99.90;;;15.96;100.00;100743.38;3260060;22;107180;-87
2021/07/10 04:19:04;;;;;;;9.40;5.40;;;16.10;99.90;;;15.96;100.00;100735.28;3239661;22;107040;-89
2021/07/10 04:22:18;;;;;;;6.93;5.57;;;15.30;99.90;;;16.15;100.00;100734.78;3729197;22;109087;-87
2021/07/10 04:24:54;;;;;;;11.07;5.63;;;15.30;99.90;;;16.30;100.00;100738.34;3570939;22;106111;-85
2021/07/10 04:27:22;;;;;;;9.73;6.13;;;16.00;99.90;;;16.42;100.00;100744.13;3532732;22;105485;-92
2021/07/10 04:29:50;;;;;;;8.45;5.68;;;15.50;99.90;;;16.48;100.00;100738.81;3260714;22;107174;-87
2021/07/10 04:32:21;;;;;;;7.20;5.15;;;15.60;99.90;;;16.57;100.00;100739.56;3653349;22;105258;-94
2021/07/10 04:34:50;;;;;;;7.75;5.20;;;15.60;99.90;;;16.48;100.00;100746.91;3159414;22;106775;-91
2021/07/10 04:37:18;;;;;;;11.93;5.10;;;15.40;99.90;;;16.43;100.00;100740.41;3691838;22;105712;-89
2021/07/10 04:39:46;;;;;;;6.70;4.68;;;16.80;99.90;;;16.40;100.00;100738.91;3510519;22;1213490;-83
2021/07/10 04:42:13;;;;;;;7.68;4.60;;;15.80;99.90;;;16.43;100.00;100746.66;3744239;22;105026;-86
2021/07/10 04:44:40;;;;;;;12.05;5.90;;;15.90;99.90;;;16.40;100.00;100749.72;3027551;22;102907;-85
2021/07/10 04:47:07;;;;;;;8.55;5.55;;;17.10;99.90;;;16.47;100.00;100739.84;3620995;22;107167;-87
2021/07/10 04:49:35;;;;;;;8.20;5.13;;;16.00;99.90;;;16.54;100.00;100748.06;3592495;22;106522;-86
2021/07/10 04:54:30;;;;;;;5.47;4.78;;;16.10;99.90;;;16.84;100.00;100749.75;3675655;22;106742;-88
2021/07/10 04:56:57;;;;;;;6.43;4.93;;;16.10;99.90;;;16.91;100.00;100738.19;3821583;22;102702;-92
2021/07/10 04:59:24;;;;;;;6.68;4.30;;;16.20;99.90;;;17.14;100.00;100738.91;3503977;22;106411;-84
2021/07/10 05:02:27;;;;;;;6.55;4.53;;;16.30;99.90;;;17.21;100.00;100727.13;3592494;22;102194;-85
2021/07/10 05:07:54;;;;;;;4.35;3.08;;;16.50;99.90;;;17.17;100.00;100720.44;3661200;22;102454;-87
2021/07/10 05:10:22;;;;;;;5.72;4.28;;;16.60;99.90;;;17.11;100.00;100715.78;3635274;22;102130;-85
2021/07/10 05:15:17;;;;;;;4.22;3.60;;;16.80;99.90;;;16.99;100.00;100701.06;3621489;22;103462;-86
2021/07/10 05:17:45;;;;;;;8.68;3.33;;;16.80;99.90;;;17.07;100.00;100700.94;3631649;22;105023;-90
2021/07/10 05:20:14;;;;;;;3.90;3.35;;;18.10;99.90;;;17.35;100.00;100694.81;3723349;22;103908;-86
2021/07/10 05:22:42;;;;;;;3.78;3.03;;;16.90;99.90;;;17.21;100.00;100700.06;3615138;22;103832;-86
2021/07/10 05:25:46;;;;;;;5.40;3.28;;;16.90;99.90;;;17.21;100.00;100704.66;3643880;22;102182;-91
2021/07/10 05:28:27;;;;;;;4.72;3.40;;;17.70;99.90;;;17.17;100.00;100700.66;3528544;22;100378;-84
2021/07/10 05:30:54;;;;;;;7.28;3.33;;;16.50;99.90;;;17.49;100.00;100697.47;3597993;23;103605;-85
2021/07/10 05:33:28;;;;;;;4.70;3.40;;;17.80;99.90;;;17.88;100.00;100702.44;3675849;22;102972;-94
2021/07/10 05:35:56;;;;;;;4.00;3.05;;;18.00;99.90;;;18.04;100.00;100685.06;3578366;22;105519;-93
2021/07/10 05:38:26;;;;;;;4.82;3.38;;;17.30;99.90;;;18.03;100.00;100677.16;3649949;22;103644;31
2021/07/10 05:40:54;;;;;;;3.78;3.35;;;17.50;99.90;;;18.10;100.00;100670.72;3557377;22;105680;-85
2021/07/10 05:43:27;;;;;;;4.18;2.92;;;17.60;99.90;;;17.85;100.00;100666.78;3732396;22;104898;31
2021/07/10 05:45:55;;;;;;;3.47;2.85;;;17.70;99.90;;;17.83;100.00;100675.09;3578826;22;107010;-90
2021/07/10 05:48:23;;;;;;;3.35;3.03;;;17.80;99.90;;;17.63;100.00;100668.69;3534378;39;100436;-86
2021/07/10 05:51:26;;;;;;;3.58;3.00;;;18.30;99.90;;;17.71;100.00;100676.66;3193421;22;104354;-84
2021/07/10 05:54:38;;;;;;;4.93;3.22;;;18.50;99.90;;;17.58;100.00;100671.94;3577048;22;104284;-84
2021/07/10 05:59:42;;;;;;;6.45;3.47;;;17.70;99.90;;;17.50;100.00;100669.38;3626329;22;104879;-86
2021/07/10 06:02:10;;;;;;;5.13;2.97;;;17.70;99.90;;;17.52;100.00;100680.84;3604098;22;104751;-93
2021/07/10 06:04:37;;;;;;;5.07;2.80;;;18.60;99.90;;;17.48;100.00;100684.13;3646072;22;104088;-83
2021/07/10 06:07:06;;;;;;;2.85;2.60;;;17.60;99.90;;;17.38;100.00;100697.97;3595114;22;104962;-85
2021/07/10 06:09:33;;;;;;;3.95;2.70;;;17.50;99.90;;;17.43;100.00;100692.00;3611340;22;101888;-86
2021/07/10 06:12:00;;;;;;;3.00;2.15;;;18.50;99.90;;;17.47;100.00;100696.81;3745980;22;105838;-85
2021/07/10 06:14:28;;;;;;;4.10;2.75;;;17.50;99.90;;;17.63;100.00;100706.59;3649600;22;102539;-84
2021/07/10 06:17:33;;;;;;;4.75;3.03;;;17.50;99.90;;;17.81;100.00;100700.69;3667689;22;104327;-83
2021/07/10 06:20:46;;;;;;;3.53;2.78;;;17.50;99.90;;;17.88;100.00;100697.03;3558281;22;105288;-84
2021/07/10 06:23:21;;;;;;;3.88;2.75;;;17.60;99.90;;;17.92;100.00;100692.91;3554396;22;106649;-89
2021/07/10 06:28:39;;;;;;;4.70;2.58;;;17.80;99.90;;;18.41;100.00;100691.16;3581178;22;102070;-84
2021/07/10 06:31:06;;;;;;;4.53;3.28;;;17.90;99.90;;;18.43;100.00;100686.34;3516677;22;104684;-91
2021/07/10 06:33:36;;;;;;;7.50;3.40;;;17.90;99.90;;;18.21;100.00;100682.88;3574036;22;106343;31
2021/07/10 06:36:40;;;;;;;4.70;2.75;;;18.10;99.90;;;18.01;100.00;100688.16;3593317;22;103203;-87
2021/07/10 06:39:51;;;;;;;2.60;2.40;;;19.00;99.90;;;17.93;100.00;100689.13;3527722;22;101604;-92
2021/07/10 06:42:27;;;;;;;4.07;3.13;;;18.10;99.90;;;18.45;100.00;100697.81;3568166;22;102898;-91
2021/07/10 06:45:19;;;;;;;4.38;2.85;;;19.30;99.90;;;18.29;100.00;100690.88;3591235;22;102415;-90
2021/07/10 06:48:23;;;;;;;2.50;2.13;;;18.20;99.90;;;18.57;100.00;100688.94;3524601;22;106029;-82
2021/07/10 06:51:04;;;;;;;3.30;2.30;;;18.30;99.90;;;18.67;100.00;100679.66;3364332;22;106052;-90
2021/07/10 06:53:31;;;;;;;4.22;2.60;;;18.60;99.90;;;18.73;100.00;100671.53;3269285;22;101542;-83
2021/07/10 06:55:58;;;;;;;5.75;3.22;;;18.50;99.90;;;18.63;100.00;100669.22;3227170;22;104368;-89
2021/07/10 06:58:25;;;;;;;3.28;2.40;;;18.60;99.90;;;18.84;100.00;100665.53;3549745;22;101156;-82
2021/07/10 07:00:52;;;;;;;7.15;2.90;;;20.00;99.90;;;18.84;100.00;100664.69;3516393;22;106048;-83
2021/07/10 07:03:20;;;;;;;2.85;2.60;;;18.40;99.90;;;18.91;100.00;100663.69;3522903;22;105025;-86
2021/07/10 07:05:46;;;;;;;2.88;2.28;;;20.10;99.90;;;19.06;100.00;100659.97;3616712;22;104649;-86
2021/07/10 07:08:15;;;;;;;2.47;2.20;;;19.00;99.90;;;19.31;100.00;100658.34;3558552;39;102105;-89
2021/07/10 07:11:18;;;;;;;4.75;2.30;;;20.40;99.90;;;19.46;100.00;100661.72;3606575;22;105817;-84
2021/07/10 07:13:54;;;;;;;2.78;2.10;;;19.00;99.90;;;19.66;100.00;100649.03;3606639;22;107658;-89
2021/07/10 07:16:21;;;;;;;1.88;1.52;;;19.80;99.90;;;19.57;100.00;100657.59;3635347;22;102990;-83
2021/07/10 07:18:48;;;;;;;2.92;2.30;;;19.50;99.90;;;19.96;100.00;100649.44;3548534;22;106693;-85
2021/07/10 07:21:16;;;;;;;2.08;1.83;;;19.70;99.90;;;20.03;100.00;100647.53;3572571;22;100923;-82
2021/07/10 07:23:46;;;;;;;3.67;1.75;;;20.20;99.90;;;20.62;100.00;100646.63;3447482;22;105378;-91
2021/07/10 07:26:13;;;;;;;2.38;2.17;;;20.00;99.90;;;20.34;100.00;100636.00;3524634;39;102433;-85
2021/07/10 07:28:40;;;;;;;3.03;1.95;;;20.30;99.90;;;20.61;100.00;100635.94;3617830;22;105758;-85
2021/07/10 07:31:07;;;;;;;4.05;2.08;;;21.70;99.90;;;20.35;100.00;100631.41;3559042;22;107663;-89
2021/07/10 07:34:10;;;;;;;7.15;2.40;;;20.70;99.90;;;20.67;100.00;100637.78;3625697;22;108778;-84
2021/07/10 07:36:46;;;;;;;2.75;2.33;;;20.90;99.90;;;20.78;100.00;100637.94;3644432;22;104197;-84
2021/07/10 07:39:51;;;;;;;4.57;2.58;;;20.70;99.90;;;21.06;100.00;100644.94;3371364;22;106295;-84
2021/07/10 07:43:04;;;;;;;1.90;1.67;;;21.20;99.90;;;20.74;100.00;100625.03;3530659;39;100627;-85
2021/07/10 07:46:16;;;;;;;3.83;2.05;;;21.40;99.90;;;21.32;100.00;100638.53;3521854;22;105419;-84
2021/07/10 07:49:28;;;;;;;3.08;2.22;;;21.60;99.90;;;21.28;100.00;100629.13;3530158;22;101071;-85
2021/07/10 07:52:41;;;;;;;4.05;2.25;;;21.70;99.90;;;21.58;100.00;100632.88;3526004;39;101362;-87
2021/07/10 07:55:18;;;;;;;2.38;2.17;;;22.00;99.90;;;21.52;100.00;100629.16;3553891;22;101650;-86
2021/07/10 07:57:45;;;;;;;3.95;2.70;;;22.20;99.90;;;21.38;100.00;100619.44;3543628;39;103016;-83
2021/07/10 08:00:19;;;;;;;3.72;2.00;;;22.30;99.90;;;21.10;100.00;100624.41;3560661;39;100442;-86
2021/07/10 08:02:46;;;;;;;3.85;1.65;;;22.40;99.90;;;21.29;100.00;100618.00;3544308;39;102623;-83
2021/07/10 08:05:15;;;;;;;3.67;1.90;;;22.50;99.90;;;21.26;100.00;100618.47;3563246;22;103810;-84
2021/07/10 08:07:42;;;;;;;2.75;2.08;;;23.50;99.90;;;21.41;100.00;100618.97;3502812;40;101260;-83
2021/07/10 08:10:13;;;;;;;3.63;2.00;;;22.70;99.90;;;21.76;100.00;100619.31;3505414;40;101494;-86
2021/07/10 08:12:44;;;;;;;2.17;1.70;;;22.60;99.90;;;21.70;100.00;100616.66;3534272;39;102724;-86
2021/07/10 08:15:14;;;;;;;3.00;2.03;;;22.70;99.90;;;21.83;100.00;100611.94;3538988;39;103715;-85
2021/07/10 08:17:42;;;;;;;7.20;2.25;;;22.80;99.90;;;21.73;100.00;100608.06;3499988;39;101020;-88
2021/07/10 08:20:11;;;;;;;4.82;1.80;;;22.80;99.90;;;21.73;100.00;100618.94;3498066;40;101181;-83
2021/07/10 08:22:38;;;;;;;2.40;2.15;;;22.80;99.90;;;21.56;100.00;100615.09;3528682;39;102195;-85
2021/07/10 08:27:31;;;;;;;2.00;1.80;;;22.90;99.90;;;21.70;100.00;100612.03;3490993;39;101995;-84
2021/07/10 08:30:00;;;;;;;3.53;2.53;;;22.90;99.90;;;21.45;100.00;100608.47;3504116;39;100712;-86
2021/07/10 08:32:27;;;;;;;2.58;1.90;;;23.80;99.90;;;21.76;100.00;100616.59;3491402;40;100223;-82
2021/07/10 08:34:54;;;;;;;2.28;1.95;;;22.90;99.90;;;21.92;100.00;100614.34;3488528;39;100834;-83
2021/07/10 08:37:21;;;;;;;2.92;2.15;;;23.40;99.90;;;21.73;100.00;100621.66;3495684;40;103701;-84
2021/07/10 08:39:49;;;;;;;5.53;2.58;;;23.10;99.90;;;21.94;100.00;100620.41;3493004;40;101003;-84
2021/07/10 08:42:16;;;;;;;2.00;1.73;;;23.10;99.90;;;22.11;100.00;100618.81;3493257;39;100431;-80
2021/07/10 08:44:43;;;;;;;1.98;1.77;;;23.20;99.90;;;21.75;100.00;100616.84;3496764;40;100063;-84
2021/07/10 08:47:15;;;;;;;4.28;2.42;;;23.30;99.90;;;22.18;100.00;100620.41;3488398;39;102085;-82
2021/07/10 08:49:42;;;;;;;3.80;2.72;;;23.20;99.60;;;21.92;100.00;100622.53;3487225;40;100799;-84
2021/07/10 08:52:10;;;;;;;2.08;1.60;;;23.20;97.80;;;21.82;100.00;100625.75;3494509;40;100680;-83
2021/07/10 08:54:39;;;;;;;2.85;2.60;;;23.30;98.80;;;21.84;100.00;100616.31;3490767;39;100125;-86
2021/07/10 08:57:07;;;;;;;3.00;1.52;;;24.10;99.20;;;21.96;100.00;100618.31;3486640;40;103264;-84
2021/07/10 08:59:36;;;;;;;2.25;2.05;;;23.20;98.20;;;22.61;100.00;100610.50;3482760;40;101564;-81
2021/07/10 09:02:04;;;;;;;2.25;2.00;;;23.30;99.50;;;22.49;100.00;100607.69;3481435;40;102850;-85
2021/07/10 09:04:32;;;;;;;2.10;1.90;;;23.40;99.50;;;22.98;100.00;100614.00;3483465;39;100175;-82
2021/07/10 09:07:00;;;;;;;3.72;2.58;;;23.70;99.20;;;22.98;100.00;100608.56;3486421;39;101377;-85
2021/07/10 09:09:43;;;;;;;1.60;1.40;;;23.90;98.90;;;23.36;100.00;100605.47;3484720;40;101199;-85
2021/07/10 09:12:12;;;;;;;2.53;1.60;;;24.00;98.50;;;23.25;100.00;100602.44;3493911;39;100407;-86
2021/07/10 09:14:40;;;;;;;2.85;2.13;;;25.20;97.70;;;23.16;100.00;100606.59;3530304;22;100759;-83
2021/07/10 09:17:18;;;;;;;3.65;1.83;;;24.50;94.90;;;23.35;100.00;100595.63;3490302;39;101024;-82
2021/07/10 09:19:49;;;;;;;3.47;1.83;;;23.60;95.10;;;23.43;100.00;100598.00;3486762;40;101340;-83
2021/07/10 09:22:27;;;;;;;2.22;1.73;;;24.80;94.20;;;22.72;100.00;100607.81;3476485;40;100200;-82
2021/07/10 09:24:56;;;;;;;1.90;1.50;;;25.00;94.00;;;23.00;100.00;100609.13;3484490;40;100488;-87
2021/07/10 09:27:23;;;;;;;2.95;2.20;;;25.00;93.20;;;23.01;100.00;100610.81;3518649;39;102977;-83
2021/07/10 09:29:50;;;;;;;1.95;1.65;;;25.00;92.50;;;23.22;100.00;100605.69;3489723;40;101573;-82
2021/07/10 09:32:20;;;;;;;2.30;1.88;;;25.00;90.70;;;23.40;100.00;100602.03;3518924;39;102771;-83
2021/07/10 09:34:51;;;;;;;2.28;1.77;;;25.00;89.80;;;23.72;100.00;100588.91;3517182;39;100811;-85
2021/07/10 09:37:20;;;;;;;1.73;1.48;;;25.10;89.80;;;23.70;100.00;100598.41;3507097;39;102710;-84
2021/07/10 09:39:57;;;;;;;4.32;2.05;;;26.20;90.30;;;24.07;100.00;100586.19;3489138;39;101136;-86
2021/07/10 09:42:30;;;;;;;1.85;1.45;;;25.40;89.20;;;24.17;100.00;100588.28;3485453;40;100458;-83
2021/07/10 09:44:58;;;;;;;2.25;1.60;;;25.50;87.60;;;23.62;100.00;100586.75;3486614;40;100014;-82
2021/07/10 09:47:28;;;;;;;4.82;2.33;;;25.70;83.20;;;23.72;100.00;100594.38;3488280;40;101022;-86
2021/07/10 09:49:58;;;;;;;3.00;2.00;;;25.70;80.00;;;23.14;100.00;100592.34;3486432;39;101381;-84
2021/07/10 09:52:30;;;;;;;2.63;1.75;;;25.70;76.90;;;22.99;100.00;100591.13;3493091;40;100908;-82
2021/07/10 09:55:04;;;;;;;1.80;1.40;;;25.90;76.30;;;23.60;100.00;100588.09;3488128;40;100165;-84
2021/07/10 09:57:36;;;;;;;2.70;1.90;;;26.00;79.40;;;23.49;100.00;100588.88;3492225;39;100652;-84
2021/07/10 10:00:09;;;;;;;2.33;1.98;;;25.40;76.60;;;23.76;100.00;100584.63;3480814;40;100243;-84
2021/07/10 10:02:44;;;;;;;2.03;1.77;;;26.00;78.40;;;24.17;100.00;100589.13;3487748;40;100435;-84
2021/07/10 10:05:16;;;;;;;1.67;1.58;;;25.40;80.30;;;24.09;100.00;100586.78;3486574;40;100243;-83
2021/07/10 10:07:46;;;;;;;3.47;1.45;;;25.60;80.20;;;24.06;100.00;100587.25;3519057;39;102845;-86
2021/07/10 10:10:26;;;;;;;1.90;1.15;;;25.70;77.80;;;24.00;100.00;100586.28;3520427;39;102107;-85
2021/07/10 10:13:18;;;;;;;4.70;1.50;;;26.30;77.10;;;23.90;100.00;100583.31;3482873;40;100674;-83
2021/07/10 10:15:48;;;;;;;1.45;1.33;;;26.00;78.40;;;23.62;100.00;100594.94;3477647;40;100210;-84
2021/07/10 10:18:18;;;;;;;2.97;1.95;;;26.10;77.00;;;24.06;100.00;100583.69;3468528;40;102253;-85
2021/07/10 10:20:49;;;;;;;2.13;1.35;;;26.80;78.80;;;24.81;100.00;100576.25;3479967;40;103225;-83
2021/07/10 10:23:18;;;;;;;2.70;1.73;;;26.20;80.40;;;24.70;100.00;100571.66;3484209;40;100648;-85
2021/07/10 10:25:47;;;;;;;1.65;1.55;;;26.90;81.20;;;24.41;100.00;100567.22;3496654;39;100016;-85
2021/07/10 10:28:19;;;;;;;1.67;1.48;;;26.70;78.00;;;24.16;100.00;100568.31;3497995;39;100028;-86
2021/07/10 10:30:47;;;;;;;3.90;1.42;;;26.80;73.60;;;23.99;100.00;100570.13;3496283;39;102135;-83
2021/07/10 10:33:16;;;;;;;1.40;1.17;;;27.70;73.60;;;24.42;100.00;100560.69;3495823;39;100114;-86
2021/07/10 10:35:45;;;;;;;1.42;1.30;;;26.70;74.00;;;24.64;100.00;100562.50;3483788;40;100739;-83
2021/07/10 10:38:14;;;;;;;1.70;1.33;;;27.00;73.70;;;24.91;100.00;100567.41;3473849;40;103095;-83
2021/07/10 10:40:42;;;;;;;1.38;1.27;;;27.80;73.40;;;24.97;100.00;100567.25;3482046;40;101650;-83
2021/07/10 10:43:14;;;;;;;1.40;1.23;;;27.30;73.50;;;24.42;100.00;100563.44;3477748;40;100821;-84
2021/07/10 10:45:41;;;;;;;1.80;1.30;;;28.20;71.70;;;24.19;100.00;100573.31;3480693;40;100254;-83
2021/07/10 10:48:09;;;;;;;1.30;1.20;;;27.40;70.30;;;24.85;100.00;100568.41;3478638;40;102902;-83
2021/07/10 10:50:39;;;;;;;2.80;2.05;;;27.40;70.00;;;25.02;100.00;100563.78;3477811;40;103244;-82
2021/07/10 10:53:09;;;;;;;1.80;1.48;;;27.50;67.90;;;25.25;100.00;100552.69;3480360;40;101110;-83
2021/07/10 10:55:41;;;;;;;3.08;1.73;;;28.30;66.70;;;24.72;100.00;100552.28;3483917;40;100228;-83
2021/07/10 10:58:22;;;;;;;1.92;1.60;;;27.70;63.40;;;24.68;100.00;100544.53;3485159;40;103350;-84
2021/07/10 11:00:59;;;;;;;1.30;1.20;;;27.60;63.70;;;25.09;100.00;100555.44;3477279;40;103134;-82
2021/07/10 11:03:36;;;;;;;4.00;2.03;;;27.80;65.50;;;24.49;100.00;100547.69;3478845;40;100738;-82
2021/07/10 11:06:04;;;;;;;2.80;1.50;;;28.10;65.70;;;24.37;100.00;100546.91;3476983;40;100519;-83
2021/07/10 11:08:53;;;;;;;1.65;1.30;;;27.70;65.80;;;24.29;100.00;100542.66;3477143;40;102778;-85